Time;durP1;ratioP1;P1;durP2;ratioP2;P2;SDS_P1;SDS_P2;PMS_P1;PMS_P2;Temp;Humidity;BMP_temperature;BMP_pressure;BME280_temperature;BME280_humidity;BME280_pressure;Samples;Min_cycle;Max_cycle;Signal;HPM_P1;HPM_P2
2022/01/12 00:00:48;;;;;;;;;;;-0.80;99.90;;;;;;5031518;28;20285;-87
2022/01/12 00:03:13;;;;;;;;;;;-0.70;99.90;;;;;;5031983;28;19913;-86
2022/01/12 00:05:39;;;;;;;;;;;-0.70;99.90;;;;;;5031991;28;19957;-87
2022/01/12 00:08:05;;;;;;;;;;;-0.70;99.90;;;;;;5018278;28;19921;-87
2022/01/12 00:10:31;;;;;;;;;;;-0.90;99.90;;;;;;5032360;28;19917;-87
2022/01/12 00:12:56;;;;;;;;;;;-1.00;99.90;;;;;;5032157;28;19913;-88
2022/01/12 00:15:22;;;;;;;;;;;-1.00;99.90;;;;;;5033421;28;19920;-87
2022/01/12 00:17:48;;;;;;;;;;;-1.00;99.90;;;;;;5035272;28;19920;-87
2022/01/12 00:20:13;;;;;;;;;;;-0.80;99.90;;;;;;5035928;28;19920;-86
2022/01/12 00:22:40;;;;;;;;;;;-0.80;99.90;;;;;;5035811;28;20323;-88
2022/01/12 00:25:26;;;;;;;;;;;-0.90;99.90;;;;;;5035865;28;19909;-87
2022/01/12 00:33:22;;;;;;;;;;;-1.10;99.90;;;;;;5036826;28;20379;-88
2022/01/12 00:35:51;;;;;;;;;;;-0.90;99.90;;;;;;5035656;28;19952;-86
2022/01/12 00:38:17;;;;;;;;;;;-0.80;99.90;;;;;;5036347;28;19978;-87
2022/01/12 00:40:44;;;;;;;;;;;-0.80;99.90;;;;;;5035406;28;19917;-88
2022/01/12 00:43:11;;;;;;;;;;;-0.80;99.90;;;;;;5035264;28;19945;-88
2022/01/12 00:45:38;;;;;;;;;;;-1.00;99.90;;;;;;5034927;28;20357;-86
2022/01/12 00:48:04;;;;;;;;;;;-0.90;99.90;;;;;;5035112;28;19913;-88
2022/01/12 00:50:30;;;;;;;;;;;-1.10;99.90;;;;;;5052087;28;19917;-86
2022/01/12 00:52:55;;;;;;;;;;;-0.90;99.90;;;;;;5035436;28;20423;-87
2022/01/12 00:55:21;;;;;;;;;;;-0.90;99.90;;;;;;5035141;28;20300;-86
2022/01/12 00:57:47;;;;;;;;;;;-0.80;99.90;;;;;;5052096;28;20449;-88
2022/01/12 01:00:13;;;;;;;;;;;-0.80;99.90;;;;;;5035258;28;20276;-88
2022/01/12 01:02:38;;;;;;;;;;;-0.80;99.90;;;;;;5034520;28;19913;-87
2022/01/12 01:05:04;;;;;;;;;;;-0.90;99.90;;;;;;5036091;28;19909;-88
2022/01/12 01:07:30;;;;;;;;;;;-1.00;99.90;;;;;;5051074;28;19913;-87
2022/01/12 01:10:20;;;;;;;;;;;-1.10;99.90;;;;;;5034908;28;20283;-89
2022/01/12 01:12:45;;;;;;;;;;;-1.10;99.90;;;;;;5048463;28;20007;-86
2022/01/12 01:15:14;;;;;;;;;;;-0.90;99.90;;;;;;5034239;28;19913;-89
2022/01/12 01:25:36;;;;;;;;;;;-0.90;99.90;;;;;;5021919;28;20272;-87
2022/01/12 01:28:02;;;;;;;;;;;-1.00;99.90;;;;;;5020777;28;19914;-86
2022/01/12 01:30:28;;;;;;;;;;;-1.10;99.90;;;;;;5021312;28;19921;-87
2022/01/12 01:32:56;;;;;;;;;;;-1.10;99.90;;;;;;5035487;28;19959;-87
2022/01/12 01:35:26;;;;;;;;;;;-0.90;99.90;;;;;;5035550;28;19953;-88
2022/01/12 01:37:51;;;;;;;;;;;-0.80;99.90;;;;;;5019459;28;20316;-86
2022/01/12 01:40:17;;;;;;;;;;;-0.80;99.90;;;;;;5019376;28;20027;-88
2022/01/12 01:53:30;;;;;;;;;;;-1.10;99.90;;;;;;5015706;28;19937;-88
2022/01/12 01:55:55;;;;;;;;;;;-0.90;99.90;;;;;;5014637;28;19909;-87
2022/01/12 01:58:21;;;;;;;;;;;-0.80;99.90;;;;;;5013483;28;19996;-87
2022/01/12 02:00:47;;;;;;;;;;;-0.80;99.90;;;;;;4996645;28;20285;-88
2022/01/12 02:03:12;;;;;;;;;;;-0.70;99.90;;;;;;4997556;28;19971;-87
2022/01/12 02:05:39;;;;;;;;;;;-0.70;99.90;;;;;;5013778;28;19917;-87
2022/01/12 02:08:05;;;;;;;;;;;-0.80;99.90;;;;;;5030475;28;19913;-88
2022/01/12 02:10:31;;;;;;;;;;;-0.90;99.90;;;;;;4997469;28;19924;-86
2022/01/12 02:12:56;;;;;;;;;;;-1.00;99.90;;;;;;5015093;28;19991;-87
2022/01/12 02:15:25;;;;;;;;;;;-1.00;99.90;;;;;;4997687;28;19917;-88
2022/01/12 02:39:55;;;;;;;;;;;-1.00;99.90;;;;;;5026830;28;19974;-86
2022/01/12 02:42:21;;;;;;;;;;;-0.90;99.90;;;;;;5033117;28;19909;-87
2022/01/12 02:55:44;;;;;;;;;;;-1.10;99.90;;;;;;5034144;28;19967;-86
2022/01/12 02:58:10;;;;;;;;;;;-0.90;99.90;;;;;;5032826;28;19913;-88
2022/01/12 03:03:23;;;;;;;;;;;-0.80;99.90;;;;;;4992172;28;20013;-87
2022/01/12 03:06:00;;;;;;;;;;;-0.80;99.90;;;;;;5032360;28;19909;-86
2022/01/12 03:08:26;;;;;;;;;;;-0.70;99.90;;;;;;5032564;28;19959;-90
2022/01/12 03:10:53;;;;;;;;;;;-0.80;99.90;;;;;;5034075;28;20019;-87
2022/01/12 03:13:19;;;;;;;;;;;-1.00;99.90;;;;;;5032573;28;19964;-87
2022/01/12 03:15:47;;;;;;;;;;;-1.00;99.90;;;;;;5032701;28;20226;-88
2022/01/12 03:18:13;;;;;;;;;;;-1.10;99.90;;;;;;5032449;28;19909;-89
2022/01/12 03:20:39;;;;;;;;;;;-1.10;99.90;;;;;;5032489;28;19909;-86
2022/01/12 03:23:04;;;;;;;;;;;-1.20;99.90;;;;;;5032279;28;19971;-87
2022/01/12 03:25:30;;;;;;;;;;;-0.90;99.90;;;;;;5032120;28;19909;-90
2022/01/12 03:28:00;;;;;;;;;;;-0.80;99.90;;;;;;5032661;28;20323;-86
2022/01/12 03:30:25;;;;;;;;;;;-0.80;99.90;;;;;;5031997;28;19924;-87
2022/01/12 03:33:06;;;;;;;;;;;-0.90;99.90;;;;;;5032527;28;20004;-87
2022/01/12 03:36:11;;;;;;;;;;;-1.10;99.90;;;;;;5032532;28;19909;-87
2022/01/12 03:38:32;;;;;;;;;;;-1.20;99.90;;;;;;5032628;28;19917;-87
2022/01/12 03:40:57;;;;;;;;;;;-1.40;99.90;;;;;;5016114;28;20319;-88
2022/01/12 03:43:23;;;;;;;;;;;-1.30;99.90;;;;;;5015899;28;19913;-86
2022/01/12 03:45:49;;;;;;;;;;;-1.20;99.90;;;;;;5032498;28;19909;-87
2022/01/12 03:48:14;;;;;;;;;;;-1.10;99.90;;;;;;5032550;28;20317;-87
2022/01/12 03:50:40;;;;;;;;;;;-1.20;99.90;;;;;;5035713;28;19917;-85
2022/01/12 03:53:05;;;;;;;;;;;-1.10;99.90;;;;;;5035983;28;19951;-88
2022/01/12 03:55:31;;;;;;;;;;;-1.20;99.90;;;;;;5035913;28;19967;-86
2022/01/12 03:57:57;;;;;;;;;;;-1.40;99.90;;;;;;5036230;28;19913;-85
2022/01/12 04:00:22;;;;;;;;;;;-1.40;99.90;;;;;;5020312;28;20421;-87
2022/01/12 04:02:48;;;;;;;;;;;-1.50;99.90;;;;;;5040946;28;19948;-88
2022/01/12 04:10:35;;;;;;;;;;;-1.10;99.90;;;;;;5037318;28;19920;-87
2022/01/12 04:13:01;;;;;;;;;;;-1.20;99.90;;;;;;5019703;28;19913;-89
2022/01/12 04:15:27;;;;;;;;;;;-1.30;99.90;;;;;;5038028;28;19916;-89
2022/01/12 04:17:53;;;;;;;;;;;-1.20;99.90;;;;;;5040113;28;19963;-87
2022/01/12 04:20:18;;;;;;;;;;;-1.40;99.90;;;;;;5041137;28;19917;-87
2022/01/12 04:25:28;;;;;;;;;;;-1.40;99.90;;;;;;5039236;28;20020;-86
2022/01/12 04:27:54;;;;;;;;;;;-1.20;99.90;;;;;;5020004;28;19956;-87
2022/01/12 04:30:19;;;;;;;;;;;-1.20;99.90;;;;;;5035735;28;19922;-87
2022/01/12 04:32:45;;;;;;;;;;;-1.30;99.90;;;;;;5036493;28;19963;-87
2022/01/12 04:35:13;;;;;;;;;;;-1.30;99.90;;;;;;5036624;28;20427;-88
2022/01/12 04:37:39;;;;;;;;;;;-1.30;99.90;;;;;;5037903;28;19909;-88
2022/01/12 04:40:05;;;;;;;;;;;-1.30;99.90;;;;;;5019475;28;20403;-87
2022/01/12 04:42:30;;;;;;;;;;;-1.20;99.90;;;;;;5036510;28;19912;-87
2022/01/12 04:45:03;;;;;;;;;;;-1.20;99.90;;;;;;5052650;28;19916;-88
2022/01/12 04:50:15;;;;;;;;;;;-1.20;99.90;;;;;;5025947;28;19913;-88
2022/01/12 04:52:41;;;;;;;;;;;-1.10;99.90;;;;;;5052174;28;19909;-87
2022/01/12 04:55:07;;;;;;;;;;;-1.10;99.90;;;;;;5052724;28;19909;-87
2022/01/12 04:57:33;;;;;;;;;;;-1.20;99.90;;;;;;5035905;28;20007;-87
2022/01/12 05:00:07;;;;;;;;;;;-1.40;99.90;;;;;;5052576;28;20455;-88
2022/01/12 05:08:19;;;;;;;;;;;-1.40;99.90;;;;;;5036614;28;20380;-85
2022/01/12 05:13:29;;;;;;;;;;;-1.40;99.90;;;;;;5035764;28;20383;-87
2022/01/12 05:15:57;;;;;;;;;;;-1.30;99.90;;;;;;5036062;28;19915;-87
2022/01/12 05:18:22;;;;;;;;;;;-1.30;99.90;;;;;;5051845;28;19975;-85
2022/01/12 05:20:48;;;;;;;;;;;-1.20;99.90;;;;;;5052055;28;19909;-87
2022/01/12 05:23:13;;;;;;;;;;;-1.20;99.90;;;;;;5051415;28;19917;-87
2022/01/12 05:25:39;;;;;;;;;;;-1.40;99.90;;;;;;5035168;28;19917;-87
2022/01/12 05:28:05;;;;;;;;;;;-1.50;99.90;;;;;;5034524;28;20000;-86
2022/01/12 05:30:31;;;;;;;;;;;-1.50;99.90;;;;;;5033956;28;19929;-88
2022/01/12 05:32:56;;;;;;;;;;;-1.40;99.90;;;;;;5017861;28;22020;-86
2022/01/12 05:35:24;;;;;;;;;;;-1.30;99.90;;;;;;5034671;28;20027;-87
2022/01/12 05:37:50;;;;;;;;;;;-1.20;99.90;;;;;;5034524;28;19909;-87
2022/01/12 05:40:16;;;;;;;;;;;-1.20;99.90;;;;;;5051094;28;19913;-88
2022/01/12 05:42:43;;;;;;;;;;;-1.10;99.90;;;;;;5034855;28;19913;-88
2022/01/12 05:45:09;;;;;;;;;;;-1.10;99.90;;;;;;5034350;28;20361;-87
2022/01/12 05:49:34;;;;;;;;;;;-1.30;99.90;;;;;;5033927;28;19909;-87
2022/01/12 05:50:22;;;;;;;;;;;-1.40;99.90;;;;;;5027955;28;19917;-86
2022/01/12 05:52:47;;;;;;;;;;;-1.50;99.90;;;;;;5033954;28;19920;-87
2022/01/12 05:55:13;;;;;;;;;;;-1.50;99.90;;;;;;5033928;28;19917;-88
2022/01/12 05:57:39;;;;;;;;;;;-1.30;99.90;;;;;;5033575;28;19909;-87
2022/01/12 06:00:06;;;;;;;;;;;-1.20;99.90;;;;;;5049962;28;19932;-88
2022/01/12 06:02:32;;;;;;;;;;;-1.20;99.90;;;;;;5029447;28;20372;-87
2022/01/12 06:04:57;;;;;;;;;;;-1.20;99.90;;;;;;5017351;28;19913;-88
2022/01/12 06:07:23;;;;;;;;;;;-1.30;99.90;;;;;;5017413;28;19917;-89
2022/01/12 06:09:48;;;;;;;;;;;-1.50;99.90;;;;;;5033682;28;19909;-88
2022/01/12 06:12:14;;;;;;;;;;;-1.50;99.90;;;;;;5032477;28;19964;-86
2022/01/12 06:14:41;;;;;;;;;;;-1.40;99.90;;;;;;5016927;28;19920;-86
2022/01/12 06:17:07;;;;;;;;;;;-1.50;99.90;;;;;;5034059;28;19909;-89
2022/01/12 06:19:33;;;;;;;;;;;-1.40;99.90;;;;;;5036283;28;19909;-85
2022/01/12 06:21:58;;;;;;;;;;;-1.50;99.90;;;;;;5040203;28;20426;-87
2022/01/12 06:24:24;;;;;;;;;;;-1.50;99.90;;;;;;5039058;28;19923;-87
2022/01/12 06:26:50;;;;;;;;;;;-1.60;99.90;;;;;;5038065;28;19997;-87
2022/01/12 06:29:32;;;;;;;;;;;-1.70;99.90;;;;;;5035552;28;19916;-87
2022/01/12 06:31:57;;;;;;;;;;;-1.70;99.90;;;;;;5034045;28;19945;-86
2022/01/12 06:34:23;;;;;;;;;;;-1.70;99.90;;;;;;5034457;28;19964;-88
2022/01/12 06:36:49;;;;;;;;;;;-1.70;99.90;;;;;;5034750;28;20003;-88
2022/01/12 06:39:17;;;;;;;;;;;-1.70;99.90;;;;;;5034423;28;20019;-89
2022/01/12 06:41:44;;;;;;;;;;;-1.70;99.90;;;;;;5034014;28;20341;-87
2022/01/12 06:44:15;;;;;;;;;;;-1.70;99.90;;;;;;5017966;28;19944;-87
2022/01/12 06:46:42;;;;;;;;;;;-1.70;99.90;;;;;;5034249;28;19971;-87
2022/01/12 06:49:07;;;;;;;;;;;-1.70;99.90;;;;;;5017545;28;20000;-87
2022/01/12 06:51:33;;;;;;;;;;;-1.60;99.90;;;;;;5033596;28;20008;-86
2022/01/12 06:53:58;;;;;;;;;;;-1.60;99.90;;;;;;5033424;28;20279;-86
2022/01/12 06:56:24;;;;;;;;;;;-1.60;99.90;;;;;;4999679;28;19920;-85
2022/01/12 06:58:50;;;;;;;;;;;-1.70;99.90;;;;;;4998716;28;19974;-86
2022/01/12 07:01:15;;;;;;;;;;;-1.80;99.90;;;;;;5031242;28;19956;-86
2022/01/12 07:03:41;;;;;;;;;;;-1.90;99.90;;;;;;5032489;28;19909;-87
2022/01/12 07:06:06;;;;;;;;;;;-1.80;99.90;;;;;;5016110;28;19913;-87
2022/01/12 07:08:34;;;;;;;;;;;-1.80;99.90;;;;;;5036864;28;19913;-88
2022/01/12 07:11:00;;;;;;;;;;;-1.90;99.90;;;;;;5037617;28;20269;-87
2022/01/12 07:13:25;;;;;;;;;;;-1.90;99.90;;;;;;5038215;28;19977;-87
2022/01/12 07:15:51;;;;;;;;;;;-1.90;99.90;;;;;;5013315;28;19922;-87
2022/01/12 07:18:16;;;;;;;;;;;-2.00;99.90;;;;;;5015114;28;19992;-88
2022/01/12 07:20:42;;;;;;;;;;;-2.00;99.90;;;;;;5014542;28;20384;-87
2022/01/12 07:23:08;;;;;;;;;;;-2.00;99.90;;;;;;5013475;28;19917;-86
2022/01/12 07:25:33;;;;;;;;;;;-2.00;99.90;;;;;;5013207;28;19913;-86
2022/01/12 07:27:59;;;;;;;;;;;-1.90;99.90;;;;;;5029339;28;20008;-87
2022/01/12 07:30:24;;;;;;;;;;;-1.90;99.90;;;;;;5014023;28;19921;-85
2022/01/12 07:32:51;;;;;;;;;;;-1.80;99.90;;;;;;5032288;28;19917;-86
2022/01/12 07:35:16;;;;;;;;;;;-1.70;99.90;;;;;;5032306;28;19910;-87
2022/01/12 07:37:42;;;;;;;;;;;-1.60;99.90;;;;;;5032057;28;20364;-85
2022/01/12 07:40:08;;;;;;;;;;;-1.60;99.90;;;;;;5033221;28;19909;-87
2022/01/12 07:42:34;;;;;;;;;;;-1.60;99.90;;;;;;5031733;28;19909;-87
2022/01/12 07:45:01;;;;;;;;;;;-1.60;99.90;;;;;;5031113;28;20418;-88
2022/01/12 07:47:28;;;;;;;;;;;-1.60;99.90;;;;;;5032465;28;20307;-86
2022/01/12 07:49:53;;;;;;;;;;;-1.50;99.90;;;;;;5031539;28;20361;-87
2022/01/12 07:52:19;;;;;;;;;;;-1.50;99.90;;;;;;5021095;28;19920;-87
2022/01/12 07:54:45;;;;;;;;;;;-1.50;99.90;;;;;;5032195;28;20331;-88
2022/01/12 07:57:10;;;;;;;;;;;-1.50;99.90;;;;;;5031444;28;19964;-87
2022/01/12 07:59:36;;;;;;;;;;;-1.40;99.90;;;;;;5031702;28;19996;-85
2022/01/12 08:02:02;;;;;;;;;;;-1.50;99.90;;;;;;5032807;28;20353;-87
2022/01/12 08:04:27;;;;;;;;;;;-1.60;99.90;;;;;;5032169;28;19909;-87
2022/01/12 08:06:53;;;;;;;;;;;-1.60;99.90;;;;;;5015814;28;19980;-86
2022/01/12 08:09:19;;;;;;;;;;;-1.50;99.90;;;;;;5031832;28;19936;-87
2022/01/12 08:11:44;;;;;;;;;;;-1.50;99.90;;;;;;5032145;28;19935;-86
2022/01/12 08:14:10;;;;;;;;;;;-1.50;99.90;;;;;;5015389;28;20361;-89
2022/01/12 08:16:35;;;;;;;;;;;-1.40;99.90;;;;;;5031672;28;19914;-87
2022/01/12 08:19:01;;;;;;;;;;;-1.20;99.90;;;;;;5048446;28;19913;-87
2022/01/12 08:21:27;;;;;;;;;;;-1.10;99.90;;;;;;5014045;28;19921;-86
2022/01/12 08:23:53;;;;;;;;;;;-1.10;99.90;;;;;;5004314;28;19929;-88
2022/01/12 08:26:18;;;;;;;;;;;-1.20;99.90;;;;;;5012020;28;19917;-88
2022/01/12 08:28:44;;;;;;;;;;;-1.30;99.90;;;;;;5011577;28;19909;-86
2022/01/12 08:31:10;;;;;;;;;;;-1.30;99.90;;;;;;5012429;28;20003;-87
2022/01/12 08:33:35;;;;;;;;;;;-1.20;99.90;;;;;;5031802;28;19962;-87
2022/01/12 08:36:01;;;;;;;;;;;-1.00;99.90;;;;;;5028219;28;20074;-87
2022/01/12 08:38:26;;;;;;;;;;;-0.80;99.90;;;;;;5039572;28;19913;-87
2022/01/12 08:40:52;;;;;;;;;;;-0.70;99.90;;;;;;5033991;28;19952;-89
2022/01/12 08:43:18;;;;;;;;;;;-0.60;99.90;;;;;;5035174;28;19992;-87
2022/01/12 08:45:44;;;;;;;;;;;-0.60;99.90;;;;;;5026490;28;20289;-88
2022/01/12 08:48:09;;;;;;;;;;;-0.40;99.90;;;;;;5025386;28;19940;-89
2022/01/12 08:50:35;;;;;;;;;;;-0.60;99.10;;;;;;5032519;28;19928;-86
2022/01/12 08:53:01;;;;;;;;;;;-0.80;99.20;;;;;;5021141;28;19914;-87
2022/01/12 08:55:26;;;;;;;;;;;-0.90;99.00;;;;;;5028712;28;19953;-90
2022/01/12 08:57:52;;;;;;;;;;;-1.10;99.90;;;;;;5026109;28;19960;-86
2022/01/12 09:00:19;;;;;;;;;;;-0.90;99.10;;;;;;5019026;28;20321;-85
2022/01/12 09:02:44;;;;;;;;;;;-0.90;97.80;;;;;;5019233;28;19914;-87
2022/01/12 09:05:11;;;;;;;;;;;-0.70;98.60;;;;;;5034454;28;19986;-85
2022/01/12 09:07:38;;;;;;;;;;;-0.40;98.10;;;;;;5033501;28;19913;-86
2022/01/12 09:10:05;;;;;;;;;;;-0.30;97.90;;;;;;5032536;28;20054;-89
2022/01/12 09:12:30;;;;;;;;;;;-0.20;97.00;;;;;;5020051;28;19921;-87
2022/01/12 09:14:56;;;;;;;;;;;0.00;97.20;;;;;;5028517;28;19913;-85
2022/01/12 09:17:23;;;;;;;;;;;-0.40;97.10;;;;;;5032532;28;20284;-87
2022/01/12 09:19:49;;;;;;;;;;;-0.60;97.70;;;;;;5031701;28;19909;-87
2022/01/12 09:22:15;;;;;;;;;;;-0.50;97.60;;;;;;5032564;28;19913;-88
2022/01/12 09:24:42;;;;;;;;;;;-0.60;96.40;;;;;;5032598;28;19913;-89
2022/01/12 09:27:08;;;;;;;;;;;-0.70;97.30;;;;;;5048990;28;19909;-86
2022/01/12 09:29:34;;;;;;;;;;;-0.70;96.50;;;;;;5033502;28;19910;-89
2022/01/12 09:32:00;;;;;;;;;;;-0.60;97.10;;;;;;5030917;28;19932;-86
2022/01/12 09:34:26;;;;;;;;;;;-1.00;98.30;;;;;;5034096;28;20171;-91
2022/01/12 09:36:52;;;;;;;;;;;-0.80;97.40;;;;;;5049528;28;20364;-86
2022/01/12 09:39:17;;;;;;;;;;;-0.70;97.20;;;;;;5016281;28;20257;-87
2022/01/12 09:41:43;;;;;;;;;;;-0.60;96.60;;;;;;5016184;28;20013;-87
2022/01/12 09:44:09;;;;;;;;;;;-0.50;97.80;;;;;;5032949;28;19964;-88
2022/01/12 09:46:34;;;;;;;;;;;-0.60;97.10;;;;;;5022720;28;19910;-87
2022/01/12 09:49:01;;;;;;;;;;;-0.60;98.10;;;;;;5029081;28;19913;-85
2022/01/12 09:51:27;;;;;;;;;;;-1.00;99.10;;;;;;5033847;28;20005;-88
2022/01/12 09:53:53;;;;;;;;;;;-1.20;99.10;;;;;;5007140;28;19928;-87
2022/01/12 09:56:21;;;;;;;;;;;-1.10;98.80;;;;;;5013846;28;19909;-88
2022/01/12 09:58:47;;;;;;;;;;;-1.00;99.40;;;;;;5016640;28;19913;-89
2022/01/12 10:01:21;;;;;;;;;;;-0.90;98.80;;;;;;5029581;28;20067;-87
2022/01/12 10:03:46;;;;;;;;;;;-0.60;98.10;;;;;;5035517;28;19921;-87
2022/01/12 10:06:13;;;;;;;;;;;-0.40;97.60;;;;;;5016053;28;19917;-88
2022/01/12 10:08:39;;;;;;;;;;;-0.30;97.20;;;;;;5024734;28;20000;-86
2022/01/12 10:11:06;;;;;;;;;;;-0.20;96.70;;;;;;5013160;28;19952;-87
2022/01/12 10:13:32;;;;;;;;;;;-0.20;96.10;;;;;;5025157;28;19917;-90
2022/01/12 10:16:09;;;;;;;;;;;-0.10;96.30;;;;;;5032570;28;19941;-86
2022/01/12 10:18:43;;;;;;;;;;;0.20;97.50;;;;;;5021355;28;20368;-87
2022/01/12 10:21:09;;;;;;;;;;;0.20;94.80;;;;;;5017740;28;19956;-88
2022/01/12 10:23:38;;;;;;;;;;;0.30;94.30;;;;;;5004059;28;19975;-87
2022/01/12 10:26:04;;;;;;;;;;;0.30;95.60;;;;;;5031182;28;19973;-87
2022/01/12 10:28:30;;;;;;;;;;;0.40;94.50;;;;;;5048780;28;20075;-88
2022/01/12 10:31:00;;;;;;;;;;;0.40;94.20;;;;;;5047904;28;19921;-88
2022/01/12 10:33:26;;;;;;;;;;;0.60;93.60;;;;;;5025601;28;19914;-88
2022/01/12 10:36:00;;;;;;;;;;;0.40;94.30;;;;;;5011414;28;19913;-86
2022/01/12 10:38:26;;;;;;;;;;;0.20;94.90;;;;;;4996192;28;19918;-87
2022/01/12 10:40:53;;;;;;;;;;;0.00;94.80;;;;;;5004458;28;19921;-88
2022/01/12 10:43:25;;;;;;;;;;;-0.10;95.40;;;;;;5012201;28;19917;-89
2022/01/12 10:45:54;;;;;;;;;;;-0.40;95.60;;;;;;5028464;28;19917;-88
2022/01/12 10:48:20;;;;;;;;;;;-0.40;97.00;;;;;;5015303;28;20680;-88
2022/01/12 10:50:53;;;;;;;;;;;-0.30;97.10;;;;;;5025004;28;19917;-88
2022/01/12 10:53:45;;;;;;;;;;;-0.20;96.10;;;;;;5046609;28;19909;-88
2022/01/12 10:56:12;;;;;;;;;;;-0.20;96.50;;;;;;5015696;28;19980;-87
2022/01/12 10:58:40;;;;;;;;;;;-0.10;96.30;;;;;;5024853;28;19916;-87
2022/01/12 11:01:06;;;;;;;;;;;-0.20;96.10;;;;;;5014352;28;20000;-86
2022/01/12 11:03:31;;;;;;;;;;;-0.30;96.00;;;;;;5032192;28;19963;-86
2022/01/12 11:05:58;;;;;;;;;;;-0.40;96.80;;;;;;5028150;28;19967;-89
2022/01/12 11:08:24;;;;;;;;;;;-0.40;97.00;;;;;;5030655;28;20032;-85
2022/01/12 11:10:50;;;;;;;;;;;-0.40;96.80;;;;;;5015868;28;19922;-88
2022/01/12 11:13:16;;;;;;;;;;;-0.50;97.20;;;;;;5024600;28;19917;-88
2022/01/12 11:15:42;;;;;;;;;;;-0.50;98.40;;;;;;5031342;28;19909;-89
2022/01/12 11:18:08;;;;;;;;;;;-0.50;97.40;;;;;;5033671;28;19909;-88
2022/01/12 11:20:34;;;;;;;;;;;-0.40;98.20;;;;;;5032427;28;19921;-89
2022/01/12 11:23:03;;;;;;;;;;;-0.30;97.30;;;;;;5032314;28;19917;-87
2022/01/12 11:25:29;;;;;;;;;;;-0.30;96.00;;;;;;5032682;28;19909;-89
2022/01/12 11:28:04;;;;;;;;;;;-0.20;96.70;;;;;;5015620;28;19913;-87
2022/01/12 11:30:33;;;;;;;;;;;-0.20;97.60;;;;;;5032205;28;20491;-88
2022/01/12 11:33:00;;;;;;;;;;;0.00;97.10;;;;;;5032253;28;19956;-87
2022/01/12 11:35:27;;;;;;;;;;;0.00;96.30;;;;;;5033631;28;19909;-88
2022/01/12 11:37:57;;;;;;;;;;;-0.10;97.50;;;;;;5033639;28;19949;-89
2022/01/12 11:40:33;;;;;;;;;;;-0.20;97.40;;;;;;5032894;28;19963;-87
2022/01/12 11:42:58;;;;;;;;;;;-0.20;98.90;;;;;;5032716;28;19919;-86
2022/01/12 11:45:24;;;;;;;;;;;-0.30;97.70;;;;;;5021626;28;19921;-87
2022/01/12 11:47:51;;;;;;;;;;;-0.50;97.90;;;;;;5032525;28;19916;-86
2022/01/12 11:50:17;;;;;;;;;;;-0.50;98.00;;;;;;5031902;28;19920;-88
2022/01/12 11:52:42;;;;;;;;;;;-0.50;97.30;;;;;;5031976;28;20122;-86
2022/01/12 11:55:10;;;;;;;;;;;-0.50;97.80;;;;;;5032647;28;19916;-90
2022/01/12 11:57:38;;;;;;;;;;;-0.50;98.10;;;;;;5015751;28;19914;-88
2022/01/12 12:00:10;;;;;;;;;;;-0.50;98.50;;;;;;5032890;28;19910;-88
2022/01/12 12:02:37;;;;;;;;;;;-0.30;98.50;;;;;;5032527;28;20346;-88
2022/01/12 12:05:07;;;;;;;;;;;-0.20;98.70;;;;;;5033130;28;19913;-87
2022/01/12 12:07:42;;;;;;;;;;;-0.20;96.80;;;;;;5032397;28;19975;-88
2022/01/12 12:10:11;;;;;;;;;;;-0.20;97.20;;;;;;5033556;28;19963;-86
2022/01/12 12:12:37;;;;;;;;;;;-0.20;98.00;;;;;;5036527;28;19975;-87
2022/01/12 12:15:04;;;;;;;;;;;-0.20;98.30;;;;;;5038192;28;20364;-89
2022/01/12 12:17:31;;;;;;;;;;;-0.10;98.30;;;;;;5047904;28;19913;-87
2022/01/12 12:19:57;;;;;;;;;;;-0.10;98.40;;;;;;5024870;28;20000;-86
2022/01/12 12:22:25;;;;;;;;;;;-0.30;98.30;;;;;;5036423;28;19964;-88
2022/01/12 12:24:55;;;;;;;;;;;-0.30;99.30;;;;;;5036636;28;20383;-87
2022/01/12 12:27:22;;;;;;;;;;;-0.20;98.60;;;;;;5036388;28;19913;-88
2022/01/12 12:29:49;;;;;;;;;;;-0.20;97.80;;;;;;5036333;28;20000;-88
2022/01/12 12:32:16;;;;;;;;;;;-0.20;98.10;;;;;;5019591;28;20434;-88
2022/01/12 12:34:45;;;;;;;;;;;-0.10;97.60;;;;;;5037323;28;19909;-88
2022/01/12 12:37:12;;;;;;;;;;;0.10;98.90;;;;;;5036806;28;20000;-87
2022/01/12 12:39:39;;;;;;;;;;;0.50;98.10;;;;;;5036373;28;19910;-87
2022/01/12 12:42:14;;;;;;;;;;;0.50;96.40;;;;;;5035800;28;19917;-86
2022/01/12 12:44:41;;;;;;;;;;;0.60;96.60;;;;;;5036112;28;19913;-87
2022/01/12 12:47:07;;;;;;;;;;;0.40;97.00;;;;;;5034717;28;19931;-87
2022/01/12 12:49:43;;;;;;;;;;;0.20;97.60;;;;;;5036652;28;19917;-89
2022/01/12 12:52:09;;;;;;;;;;;0.00;98.30;;;;;;5026363;28;19917;-87
2022/01/12 12:54:39;;;;;;;;;;;-0.10;98.70;;;;;;5021326;28;19921;-89
2022/01/12 12:57:09;;;;;;;;;;;-0.10;98.10;;;;;;5034708;28;19916;-86
2022/01/12 12:59:35;;;;;;;;;;;-0.10;99.70;;;;;;5038180;28;19913;-86
2022/01/12 13:02:08;;;;;;;;;;;0.20;98.90;;;;;;5051739;28;19924;-87
2022/01/12 13:04:34;;;;;;;;;;;0.30;97.50;;;;;;5039427;28;19970;-86
2022/01/12 13:07:09;;;;;;;;;;;0.40;97.80;;;;;;5059842;28;19932;-87
2022/01/12 13:09:35;;;;;;;;;;;0.30;97.20;;;;;;5043190;28;19917;-86
2022/01/12 13:12:01;;;;;;;;;;;0.10;96.40;;;;;;5039632;28;19942;-87
2022/01/12 13:14:26;;;;;;;;;;;-0.10;96.80;;;;;;5020106;28;19943;-89
2022/01/12 13:16:53;;;;;;;;;;;-0.20;98.00;;;;;;5019174;28;20321;-87
2022/01/12 13:21:07;;;;;;;;;;;-0.20;97.90;;;;;;5035118;28;19967;-87
2022/01/12 13:22:26;;;;;;;;;;;-0.20;99.20;;;;;;5015873;28;19909;-87
2022/01/12 13:24:52;;;;;;;;;;;-0.10;99.90;;;;;;5031151;28;20331;-87
2022/01/12 13:27:18;;;;;;;;;;;-0.10;99.70;;;;;;5031623;28;19932;-86
2022/01/12 13:29:50;;;;;;;;;;;-0.20;99.60;;;;;;5031651;28;20376;-86
2022/01/12 13:32:16;;;;;;;;;;;-0.20;99.90;;;;;;5030199;28;20373;-88
2022/01/12 13:34:53;;;;;;;;;;;-0.40;99.90;;;;;;5033880;28;19952;-88
2022/01/12 13:37:18;;;;;;;;;;;-0.60;99.90;;;;;;5034803;28;19916;-88
2022/01/12 13:39:44;;;;;;;;;;;-0.60;99.90;;;;;;5034666;28;20256;-87
2022/01/12 13:42:10;;;;;;;;;;;-0.70;99.90;;;;;;5034763;28;20269;-88
2022/01/12 13:44:35;;;;;;;;;;;-0.80;99.90;;;;;;5034325;28;20283;-88
2022/01/12 13:47:11;;;;;;;;;;;-0.80;99.90;;;;;;5034273;28;19917;-87
2022/01/12 13:49:37;;;;;;;;;;;-0.80;99.90;;;;;;5034478;28;20046;-88
2022/01/12 13:52:04;;;;;;;;;;;-0.60;99.90;;;;;;5050726;28;20012;-87
2022/01/12 13:54:34;;;;;;;;;;;-0.60;99.90;;;;;;5034063;28;19932;-87
2022/01/12 13:57:00;;;;;;;;;;;-0.60;99.90;;;;;;5033837;28;19963;-87
2022/01/12 13:59:29;;;;;;;;;;;-0.60;99.90;;;;;;5034155;28;19909;-88
2022/01/12 14:01:55;;;;;;;;;;;-0.50;99.90;;;;;;5033546;28;19960;-87
2022/01/12 14:04:33;;;;;;;;;;;-0.50;99.90;;;;;;5035359;28;19913;-87
2022/01/12 14:07:02;;;;;;;;;;;-0.60;99.90;;;;;;5033698;28;20334;-88
2022/01/12 14:09:46;;;;;;;;;;;-0.40;99.90;;;;;;5034019;28;20421;-86
2022/01/12 14:12:16;;;;;;;;;;;-0.40;99.90;;;;;;5033828;28;19913;-87
2022/01/12 14:14:54;;;;;;;;;;;-0.40;99.90;;;;;;5033274;28;19920;-86
2022/01/12 14:17:21;;;;;;;;;;;-0.40;99.90;;;;;;5033576;28;19973;-86
2022/01/12 14:20:21;;;;;;;;;;;-0.50;99.90;;;;;;5032977;28;20399;-88
2022/01/12 14:22:49;;;;;;;;;;;-0.60;99.90;;;;;;5032154;28;19956;-87
2022/01/12 14:25:17;;;;;;;;;;;-0.70;99.90;;;;;;5032418;28;19916;-85
2022/01/12 14:27:45;;;;;;;;;;;-0.70;99.90;;;;;;5032277;28;19916;-86
2022/01/12 14:30:12;;;;;;;;;;;-0.70;99.90;;;;;;5032132;28;20369;-87
2022/01/12 14:32:38;;;;;;;;;;;-0.70;99.90;;;;;;5016698;28;20006;-87
2022/01/12 14:35:05;;;;;;;;;;;-0.60;99.90;;;;;;5032761;28;19959;-87
2022/01/12 14:37:31;;;;;;;;;;;-0.70;99.90;;;;;;5033411;28;20360;-87
2022/01/12 14:39:57;;;;;;;;;;;-0.70;99.90;;;;;;5033568;28;20369;-86
2022/01/12 14:42:22;;;;;;;;;;;-0.70;99.90;;;;;;5033524;28;19913;-87
2022/01/12 14:44:48;;;;;;;;;;;-0.80;99.90;;;;;;5014058;28;19917;-88
2022/01/12 14:47:14;;;;;;;;;;;-0.80;99.90;;;;;;5031737;28;19914;-87
2022/01/12 14:49:39;;;;;;;;;;;-0.90;99.90;;;;;;5033079;28;19913;-86
2022/01/12 14:52:05;;;;;;;;;;;-1.00;99.90;;;;;;5031806;28;19918;-87
2022/01/12 14:54:31;;;;;;;;;;;-1.00;99.90;;;;;;5031051;28;19959;-88
2022/01/12 14:56:56;;;;;;;;;;;-1.10;99.90;;;;;;5014074;28;19960;-87
2022/01/12 14:59:22;;;;;;;;;;;-1.10;99.90;;;;;;5049257;28;19924;-89
2022/01/12 15:01:47;;;;;;;;;;;-1.10;99.90;;;;;;5026990;28;19917;-86
2022/01/12 15:04:13;;;;;;;;;;;-1.10;99.90;;;;;;5017707;28;19917;-86
2022/01/12 15:06:38;;;;;;;;;;;-1.20;99.90;;;;;;5033791;28;19913;-87
2022/01/12 15:09:04;;;;;;;;;;;-1.30;99.90;;;;;;5013689;28;20011;-86
2022/01/12 15:11:32;;;;;;;;;;;-1.40;99.90;;;;;;5012865;28;19914;-86
2022/01/12 15:14:10;;;;;;;;;;;-1.40;99.90;;;;;;5029867;28;20441;-86
2022/01/12 15:16:36;;;;;;;;;;;-1.40;99.90;;;;;;5018112;28;19925;-86
2022/01/12 15:19:01;;;;;;;;;;;-1.40;99.90;;;;;;5018066;28;20285;-88
2022/01/12 15:21:27;;;;;;;;;;;-1.40;99.90;;;;;;5038797;28;19996;-86
2022/01/12 15:23:52;;;;;;;;;;;-1.40;99.90;;;;;;5008616;28;20077;-87
2022/01/12 15:26:18;;;;;;;;;;;-1.60;99.90;;;;;;4999786;28;20376;-89
2022/01/12 15:28:43;;;;;;;;;;;-1.70;99.90;;;;;;4996811;28;19913;-87
2022/01/12 15:31:09;;;;;;;;;;;-1.80;99.90;;;;;;4999837;28;19925;-86
2022/01/12 15:33:35;;;;;;;;;;;-1.90;99.90;;;;;;5032056;28;19960;-87
2022/01/12 15:36:01;;;;;;;;;;;-2.00;99.90;;;;;;5016152;28;19913;-86
2022/01/12 15:38:27;;;;;;;;;;;-1.90;99.90;;;;;;5032866;28;19971;-88